createdAt,value
2024-03-09T00:58:45.705Z,6.32
2024-03-09T01:08:00.835Z,6.37
2024-03-09T01:24:06.762Z,6.02
2024-03-09T01:27:24.545Z,6.29
2024-03-09T01:33:38.222Z,6.27
2024-03-09T01:43:24.302Z,6.16
2024-03-09T01:49:52.848Z,5.68
2024-03-09T01:52:44.569Z,5.66
2024-03-09T01:55:51.753Z,5.81
2024-03-09T02:02:31.127Z,5.98
2024-03-09T02:05:40.844Z,6.01
2024-03-09T02:09:07.061Z,5.81
2024-03-09T02:12:16.007Z,5.71
2024-03-09T02:15:07.053Z,5.99
2024-03-09T02:17:57.544Z,5.99
2024-03-09T02:24:14.780Z,6.29
2024-03-09T02:27:13.406Z,6.18
2024-03-09T02:30:42.182Z,6.21
2024-03-09T02:37:24.104Z,6.31
2024-03-09T02:40:16.397Z,5.88
2024-03-09T02:43:30.507Z,6.04
2024-03-09T02:49:30.727Z,6.05
2024-03-09T02:55:27.301Z,6.36
2024-03-09T02:58:20.482Z,6.43
2024-03-09T03:01:12.192Z,6.35
2024-03-09T03:04:01.210Z,6.01
2024-03-09T03:07:15.207Z,5.74
2024-03-09T03:10:03.658Z,5.75
2024-03-09T03:13:00.462Z,5.73
2024-03-09T03:16:25.739Z,5.65
2024-03-09T03:19:25.997Z,5.88
2024-03-09T03:26:06.062Z,6.03
2024-03-09T03:29:29.869Z,6.24
2024-03-09T03:32:28.860Z,6.25
2024-03-09T03:35:29.906Z,6.12
2024-03-09T03:38:08.741Z,5.93
2024-03-09T03:40:54.237Z,6.16
2024-03-09T03:43:34.218Z,6.10
2024-03-09T03:46:44.208Z,5.98
2024-03-09T03:49:42.523Z,5.73
2024-03-09T03:52:30.554Z,5.89
2024-03-09T03:55:28.124Z,5.70
2024-03-09T03:58:29.148Z,5.87
2024-03-09T04:03:50.505Z,5.73
2024-03-09T04:06:55.054Z,5.44
2024-03-09T04:09:42.980Z,5.44
2024-03-09T04:15:21.398Z,5.70
2024-03-09T04:18:07.750Z,5.60
2024-03-09T04:20:45.089Z,5.50
2024-03-09T04:23:34.854Z,5.46
2024-03-09T04:26:18.531Z,5.34
2024-03-09T04:28:57.394Z,5.52
2024-03-09T04:31:47.341Z,5.51
2024-03-09T04:34:25.706Z,5.69
2024-03-09T04:37:12.052Z,5.81
2024-03-09T04:40:03.791Z,5.64
2024-03-09T04:42:35.977Z,5.48
2024-03-09T04:45:17.001Z,5.28
2024-03-09T04:47:55.007Z,5.29
2024-03-09T04:50:43.726Z,5.22
2024-03-09T04:53:25.476Z,5.07
2024-03-09T04:56:03.989Z,4.95
2024-03-09T04:58:40.210Z,4.83
2024-03-09T05:01:18.531Z,4.62
2024-03-09T05:03:57.032Z,4.93
2024-03-09T05:06:43.316Z,4.91
2024-03-09T05:09:27.361Z,4.79
2024-03-09T05:12:10.621Z,4.72
2024-03-09T05:14:50.288Z,4.80
2024-03-09T05:17:32.824Z,4.72
2024-03-09T05:20:35.550Z,4.48
2024-03-09T05:23:15.208Z,4.26
2024-03-09T05:26:01.520Z,4.13
2024-03-09T05:28:48.752Z,4.08
2024-03-09T05:31:34.614Z,4.33
2024-03-09T05:34:20.786Z,4.46
2024-03-09T05:37:07.757Z,4.47
2024-03-09T05:40:12.331Z,4.55
2024-03-09T05:42:58.239Z,4.42
2024-03-09T05:45:40.082Z,4.17
2024-03-09T05:48:15.892Z,4.27
2024-03-09T05:51:00.661Z,4.38
2024-03-09T05:53:40.180Z,4.26
2024-03-09T05:56:19.536Z,4.39
2024-03-09T05:59:09.802Z,4.26
2024-03-09T06:01:50.766Z,4.27
2024-03-09T06:04:32.998Z,4.54
2024-03-09T06:07:15.399Z,4.42
2024-03-09T06:10:03.901Z,4.73
2024-03-09T06:12:53.053Z,4.40
2024-03-09T06:15:39.681Z,4.85
2024-03-09T06:18:26.859Z,4.80
2024-03-09T06:21:14.470Z,4.63
2024-03-09T06:23:58.230Z,4.88
2024-03-09T06:26:45.580Z,4.85
2024-03-09T06:29:29.521Z,4.69
2024-03-09T06:32:46.003Z,5.23
2024-03-09T06:38:41.622Z,5.31
2024-03-09T06:44:52.262Z,5.74
2024-03-09T06:47:53.592Z,5.74
2024-03-09T06:50:48.713Z,5.13
2024-03-09T06:53:53.502Z,5.25
2024-03-09T06:57:13.443Z,5.73
2024-03-09T07:00:19.708Z,6.44
2024-03-09T07:03:13.582Z,6.93
2024-03-09T07:06:01.795Z,7.32
2024-03-09T07:12:20.693Z,6.97
2024-03-09T07:19:16.027Z,6.93
2024-03-09T09:06:33.192Z,11.56
2024-03-09T09:09:01.702Z,11.32
2024-03-09T09:11:32.975Z,11.74
2024-03-09T09:14:03.350Z,11.54
2024-03-09T09:16:31.347Z,11.18
2024-03-09T09:18:59.930Z,11.24
2024-03-09T09:21:28.105Z,10.66
2024-03-09T09:23:56.350Z,10.68
2024-03-09T09:26:24.245Z,10.68
2024-03-09T09:28:55.180Z,11.22
2024-03-09T09:31:25.385Z,11.77
2024-03-09T09:33:53.660Z,11.60
2024-03-09T09:36:21.554Z,12.33
2024-03-09T09:38:50.259Z,11.54
2024-03-09T09:41:18.565Z,12.36
2024-03-09T09:43:48.997Z,13.00
2024-03-09T09:49:41.807Z,12.35
2024-03-09T09:55:33.089Z,12.19
2024-03-09T09:58:02.279Z,12.62
2024-03-09T10:00:29.961Z,12.42
2024-03-09T10:02:59.914Z,11.97
2024-03-09T10:05:29.919Z,11.37
2024-03-09T10:08:02.623Z,11.62
2024-03-09T10:10:32.209Z,11.59
2024-03-09T10:13:10.298Z,11.11
2024-03-09T10:15:39.656Z,11.14
2024-03-09T10:18:10.919Z,10.81
2024-03-09T10:20:39.462Z,10.80
2024-03-09T10:23:10.229Z,10.60
2024-03-09T10:25:49.383Z,10.56
2024-03-09T10:28:17.423Z,11.39
2024-03-09T10:30:47.237Z,11.20
2024-03-09T10:33:18.252Z,11.22
2024-03-09T10:35:49.386Z,11.13
2024-03-09T10:38:18.530Z,11.44
2024-03-09T10:40:46.327Z,11.69
2024-03-09T10:43:14.682Z,11.75
2024-03-09T10:45:42.697Z,12.38
2024-03-09T10:48:11.886Z,11.98
2024-03-09T10:54:09.438Z,11.32
2024-03-09T10:56:37.631Z,11.42
2024-03-09T10:59:07.196Z,11.54
2024-03-09T11:01:37.300Z,11.61
2024-03-09T11:04:06.025Z,11.93
2024-03-09T11:06:33.537Z,11.89
2024-03-09T11:09:08.864Z,11.98
2024-03-09T11:11:37.504Z,12.07
2024-03-09T11:14:05.281Z,12.08
2024-03-09T11:16:33.608Z,12.10
2024-03-09T11:19:01.785Z,12.28
2024-03-09T11:21:37.408Z,12.37
2024-03-09T11:24:13.346Z,12.39
2024-03-09T11:26:47.454Z,12.72
2024-03-09T11:29:17.657Z,12.89
2024-03-09T11:31:46.638Z,12.84
2024-03-09T11:34:14.925Z,12.79
2024-03-09T11:36:46.181Z,12.79
2024-03-09T11:39:15.308Z,12.43
2024-03-09T11:41:47.825Z,12.33
2024-03-09T11:44:21.829Z,12.03
2024-03-09T11:46:50.237Z,11.89
2024-03-09T11:49:18.003Z,11.98
2024-03-09T11:51:46.854Z,12.13
2024-03-09T11:54:18.250Z,12.01
2024-03-09T11:56:47.416Z,12.03
2024-03-09T11:59:16.891Z,12.10
2024-03-09T12:01:50.701Z,12.05
2024-03-09T12:04:21.938Z,12.42
2024-03-09T12:06:49.405Z,12.52
2024-03-09T12:09:17.676Z,12.54
2024-03-09T12:11:48.079Z,12.52
2024-03-09T12:14:16.870Z,12.64
2024-03-09T12:16:46.497Z,12.69
2024-03-09T12:19:15.982Z,12.70
2024-03-09T12:21:46.957Z,12.56
2024-03-09T12:24:15.449Z,12.68
2024-03-09T12:26:43.251Z,12.40
2024-03-09T12:29:15.497Z,12.49
2024-03-09T12:31:44.333Z,12.91
2024-03-09T12:34:15.028Z,12.91
2024-03-09T12:36:52.745Z,12.46
2024-03-09T12:42:38.047Z,12.52
2024-03-09T12:45:06.896Z,12.78
2024-03-09T12:47:35.081Z,12.77
2024-03-09T12:50:04.934Z,13.04
2024-03-09T12:52:37.173Z,13.25
2024-03-09T12:55:09.888Z,13.11
2024-03-09T12:57:37.881Z,12.95
2024-03-09T13:00:13.479Z,12.99
2024-03-09T13:03:02.535Z,12.81
2024-03-09T13:05:34.667Z,13.05
2024-03-09T13:08:08.689Z,13.24
2024-03-09T13:10:38.517Z,13.48
2024-03-09T13:13:08.007Z,13.23
2024-03-09T13:15:38.898Z,13.36
2024-03-09T13:18:07.498Z,12.91
2024-03-09T13:20:39.308Z,13.02
2024-03-09T13:23:08.173Z,12.85
2024-03-09T13:25:36.345Z,13.08
2024-03-09T13:28:06.241Z,12.96
2024-03-09T13:30:41.070Z,12.26
2024-03-09T13:33:16.426Z,12.42
2024-03-09T13:35:50.883Z,12.25
2024-03-09T13:38:20.907Z,12.31
2024-03-09T13:40:49.009Z,12.61
2024-03-09T13:43:18.308Z,12.74
2024-03-09T13:45:48.996Z,12.83
2024-03-09T13:48:19.604Z,12.18
2024-03-09T13:50:47.654Z,12.52
2024-03-09T13:53:18.792Z,12.41
2024-03-09T13:55:48.869Z,12.36
2024-03-09T13:58:22.251Z,12.80
2024-03-09T14:00:52.279Z,12.80
2024-03-09T14:03:25.010Z,12.39
2024-03-09T14:05:53.041Z,12.25
2024-03-09T14:08:21.533Z,12.25
2024-03-09T14:10:52.093Z,12.28
2024-03-09T14:13:22.538Z,12.56
2024-03-09T14:15:50.704Z,12.62
2024-03-09T14:18:21.692Z,12.63
2024-03-09T14:20:53.450Z,12.64
2024-03-09T14:23:24.409Z,12.58
2024-03-09T14:25:54.137Z,12.47
2024-03-09T14:28:24.224Z,12.47
2024-03-09T14:30:52.081Z,12.80
2024-03-09T14:33:19.912Z,12.84
2024-03-09T14:35:48.055Z,12.87
2024-03-09T14:38:18.081Z,12.73
2024-03-09T14:40:53.355Z,12.97
2024-03-09T14:43:24.837Z,12.82
2024-03-09T14:45:52.852Z,12.52
2024-03-09T14:48:25.278Z,12.20
2024-03-09T14:50:53.137Z,12.20
2024-03-09T14:53:23.505Z,12.04
2024-03-09T14:55:52.494Z,12.09
2024-03-09T14:58:19.815Z,12.01
2024-03-09T15:00:52.860Z,11.92
2024-03-09T15:03:23.775Z,12.02
2024-03-09T15:05:54.747Z,12.01
2024-03-09T15:08:23.519Z,11.82
2024-03-09T15:10:59.807Z,11.78
2024-03-09T15:13:41.830Z,11.88
2024-03-09T15:16:13.414Z,12.12
2024-03-09T15:18:41.958Z,12.12
2024-03-09T15:21:10.333Z,12.06
2024-03-09T15:23:40.942Z,12.18
2024-03-09T15:26:09.769Z,12.09
2024-03-09T15:28:41.390Z,12.02
2024-03-09T15:31:11.251Z,12.04
2024-03-09T15:33:41.175Z,11.95
2024-03-09T15:36:12.550Z,11.89
2024-03-09T15:38:41.649Z,11.45
2024-03-09T15:41:13.072Z,11.44
2024-03-09T15:43:42.441Z,11.45
2024-03-09T15:46:13.907Z,11.46
2024-03-09T15:48:43.126Z,11.36
2024-03-09T15:51:13.898Z,11.34
2024-03-09T15:57:13.896Z,11.28
2024-03-09T15:59:42.628Z,11.00
2024-03-09T16:02:10.439Z,11.22
2024-03-09T16:04:39.462Z,11.03
2024-03-09T16:10:34.011Z,10.76
2024-03-09T16:16:26.134Z,10.72
2024-03-09T16:19:01.211Z,10.89
2024-03-09T16:21:46.053Z,10.72
2024-03-09T16:24:13.764Z,10.66
2024-03-09T16:26:41.260Z,10.66
2024-03-09T16:29:13.147Z,10.84
2024-03-09T16:31:40.968Z,10.73
2024-03-09T16:34:12.527Z,10.75
2024-03-09T16:36:40.029Z,10.71
2024-03-09T16:39:10.732Z,10.57
2024-03-09T16:41:40.663Z,10.55
2024-03-09T16:44:08.425Z,10.52
2024-03-09T16:46:35.865Z,10.49
2024-03-09T16:49:06.738Z,10.37
2024-03-09T16:51:34.524Z,10.39
2024-03-09T16:54:01.865Z,10.33
2024-03-09T16:56:30.290Z,10.40
2024-03-09T16:58:59.924Z,10.22
2024-03-09T17:01:29.426Z,10.38
2024-03-09T17:04:01.258Z,10.36
2024-03-09T17:06:29.658Z,10.24
2024-03-09T17:08:57.267Z,10.09
2024-03-09T17:11:28.044Z,10.24
2024-03-09T17:13:55.804Z,10.09
2024-03-09T17:16:24.963Z,10.09
2024-03-09T17:18:54.899Z,10.12
2024-03-09T17:21:25.691Z,10.01
2024-03-09T17:23:57.686Z,10.08
2024-03-09T17:26:33.984Z,9.96
2024-03-09T17:29:05.025Z,10.08
2024-03-09T17:31:34.457Z,9.91
2024-03-09T17:34:07.953Z,9.93
2024-03-09T17:36:35.665Z,9.81
2024-03-09T17:39:05.498Z,9.77
2024-03-09T17:41:36.740Z,9.73
2024-03-09T17:44:11.770Z,9.83
2024-03-09T17:46:43.046Z,9.87
2024-03-09T17:49:14.380Z,9.70
2024-03-09T17:51:47.897Z,9.67
2024-03-09T17:54:17.760Z,9.73
2024-03-09T17:56:46.258Z,9.68
2024-03-09T17:59:15.792Z,9.65
2024-03-09T18:01:45.846Z,9.86
2024-03-09T18:04:13.522Z,9.69
2024-03-09T18:06:40.821Z,9.68
2024-03-09T18:09:16.864Z,9.57
2024-03-09T18:11:45.414Z,9.54
2024-03-09T18:14:19.835Z,9.56
2024-03-09T18:16:50.978Z,9.57
2024-03-09T18:19:21.591Z,9.49
2024-03-09T18:21:49.310Z,9.42
2024-03-09T18:24:17.287Z,9.44
2024-03-09T18:26:47.027Z,9.42
2024-03-09T18:29:14.816Z,9.26
2024-03-09T18:31:45.172Z,9.15
2024-03-09T18:34:12.983Z,9.22
2024-03-09T18:36:42.888Z,9.19
2024-03-09T18:39:10.600Z,9.17
2024-03-09T18:41:37.998Z,9.00
2024-03-09T18:44:06.022Z,9.13
2024-03-09T18:46:34.225Z,8.96
2024-03-09T18:49:04.477Z,9.10
2024-03-09T18:51:32.383Z,8.96
2024-03-09T18:53:59.952Z,9.05
2024-03-09T18:56:27.433Z,9.16
2024-03-09T18:59:09.876Z,8.90
2024-03-09T19:01:37.737Z,8.78
2024-03-09T19:04:06.335Z,8.75
2024-03-09T19:06:34.365Z,8.70
2024-03-09T19:09:01.685Z,8.75
2024-03-09T19:11:32.491Z,8.73
2024-03-09T19:14:00.190Z,8.57
2024-03-09T19:16:28.221Z,8.66
2024-03-09T19:18:56.382Z,8.63
2024-03-09T19:21:25.790Z,8.45
2024-03-09T19:23:53.790Z,8.42
2024-03-09T19:26:50.390Z,8.44
2024-03-09T19:29:18.775Z,8.33
2024-03-09T19:31:47.236Z,8.27
2024-03-09T19:34:15.180Z,8.29
2024-03-09T19:36:43.364Z,8.21
2024-03-09T19:39:12.222Z,8.20
2024-03-09T19:41:39.705Z,8.26
2024-03-09T19:44:08.895Z,8.17
2024-03-09T19:46:39.479Z,8.22
2024-03-09T19:49:07.875Z,8.34
2024-03-09T19:51:37.275Z,8.19
2024-03-09T19:54:06.431Z,8.17
2024-03-09T19:56:34.851Z,8.19
2024-03-09T20:02:02.737Z,8.16
2024-03-09T20:04:31.208Z,8.28
2024-03-09T20:07:00.772Z,8.20
2024-03-09T20:09:28.616Z,8.24
2024-03-09T20:11:58.124Z,8.38
2024-03-09T20:14:30.180Z,8.35
2024-03-09T20:17:00.161Z,8.38
2024-03-09T20:19:28.537Z,8.38
2024-03-09T20:21:56.609Z,8.47
2024-03-09T20:24:24.973Z,8.55
2024-03-09T20:26:53.385Z,8.40
2024-03-09T20:29:21.492Z,8.48
2024-03-09T20:31:49.910Z,8.53
2024-03-09T20:34:18.742Z,8.47
2024-03-09T20:36:47.015Z,8.44
2024-03-09T20:39:15.973Z,8.51
2024-03-09T20:41:44.406Z,8.53
2024-03-09T20:44:13.877Z,8.48
2024-03-09T20:46:42.950Z,8.49
2024-03-09T20:49:10.937Z,8.47
2024-03-09T20:51:41.762Z,8.42
2024-03-09T20:54:10.634Z,8.46
2024-03-09T20:56:39.943Z,8.58
2024-03-09T20:59:11.128Z,8.49
2024-03-09T21:01:41.653Z,8.55
2024-03-09T21:04:10.343Z,8.65
2024-03-09T21:06:38.876Z,8.61
2024-03-09T21:09:07.343Z,8.68
2024-03-09T21:11:36.965Z,8.53
2024-03-09T21:14:06.254Z,8.52
2024-03-09T21:16:34.809Z,8.50
2024-03-09T21:19:06.945Z,8.54
2024-03-09T21:21:35.321Z,8.62
2024-03-09T21:24:04.316Z,8.53
2024-03-09T21:26:32.281Z,8.67
2024-03-09T21:29:00.371Z,8.63
2024-03-09T21:31:31.144Z,8.61
2024-03-09T21:34:00.895Z,8.64
2024-03-09T21:36:29.040Z,8.85
2024-03-09T21:38:56.845Z,8.78
2024-03-09T21:41:26.061Z,8.59
2024-03-09T21:47:03.508Z,8.56
2024-03-09T21:49:31.971Z,8.69
2024-03-09T21:58:17.471Z,8.41
2024-03-09T22:00:45.074Z,8.61
2024-03-09T22:03:14.041Z,8.49
2024-03-09T22:05:41.649Z,8.50
2024-03-09T22:08:10.790Z,8.49
2024-03-09T22:10:38.555Z,8.59
2024-03-09T22:13:07.666Z,8.56
2024-03-09T22:15:35.270Z,8.52
2024-03-09T22:18:07.054Z,8.43
2024-03-09T22:20:34.740Z,8.47
2024-03-09T22:23:02.233Z,8.33
2024-03-09T22:25:29.900Z,8.39
2024-03-09T22:27:57.210Z,8.37
2024-03-09T22:30:25.144Z,8.24
2024-03-09T22:32:54.354Z,8.20
2024-03-09T22:35:23.976Z,8.39
2024-03-09T22:37:52.721Z,8.33
2024-03-09T22:40:21.822Z,8.47
2024-03-09T22:42:49.380Z,8.41
2024-03-09T22:45:19.226Z,8.40
2024-03-09T22:47:47.433Z,8.48
2024-03-09T22:50:18.400Z,8.51
2024-03-09T22:52:46.797Z,8.47
2024-03-09T22:55:16.404Z,8.47
2024-03-09T22:57:44.823Z,8.40
2024-03-09T23:00:34.922Z,8.46
2024-03-09T23:03:02.919Z,8.67
2024-03-09T23:05:32.382Z,8.51
2024-03-09T23:08:00.510Z,8.43
2024-03-09T23:10:29.927Z,8.28
2024-03-09T23:12:57.537Z,8.49
2024-03-09T23:15:45.789Z,8.49
2024-03-09T23:18:18.803Z,8.47
2024-03-09T23:20:48.481Z,8.44
2024-03-09T23:23:17.277Z,8.57
2024-03-09T23:25:44.592Z,8.66
2024-03-09T23:28:11.889Z,8.59
2024-03-09T23:30:39.463Z,8.57
2024-03-09T23:33:08.003Z,8.54
2024-03-09T23:35:35.892Z,8.48
2024-03-09T23:38:06.657Z,8.51
2024-03-09T23:40:34.315Z,8.49
2024-03-09T23:43:02.088Z,8.53
2024-03-09T23:45:30.027Z,8.75
2024-03-09T23:47:57.353Z,8.76
2024-03-09T23:50:25.353Z,8.72
2024-03-09T23:52:55.038Z,8.65
2024-03-09T23:55:23.304Z,8.65
2024-03-09T23:57:50.744Z,8.69
